sensor_id;sensor_type;location;lat;lon;timestamp;temperature;humidity
31133;DHT22;17779;50.942;4.026;2022-07-23T00:01:19;17.90;99.90
31133;DHT22;17779;50.942;4.026;2022-07-23T00:03:44;17.80;99.90
31133;DHT22;17779;50.942;4.026;2022-07-23T00:06:10;17.80;99.90
31133;DHT22;17779;50.942;4.026;2022-07-23T00:08:36;17.70;99.90
31133;DHT22;17779;50.942;4.026;2022-07-23T00:11:02;17.60;99.90
31133;DHT22;17779;50.942;4.026;2022-07-23T00:13:28;17.40;99.90
31133;DHT22;17779;50.942;4.026;2022-07-23T00:15:54;17.40;99.90
31133;DHT22;17779;50.942;4.026;2022-07-23T00:18:20;17.20;99.90
31133;DHT22;17779;50.942;4.026;2022-07-23T00:20:46;17.20;99.90
31133;DHT22;17779;50.942;4.026;2022-07-23T00:23:12;17.00;99.90
31133;DHT22;17779;50.942;4.026;2022-07-23T00:25:38;16.80;99.90
31133;DHT22;17779;50.942;4.026;2022-07-23T00:28:03;16.80;99.90
31133;DHT22;17779;50.942;4.026;2022-07-23T00:30:30;16.80;99.90
31133;DHT22;17779;50.942;4.026;2022-07-23T00:33:01;16.70;99.90
31133;DHT22;17779;50.942;4.026;2022-07-23T00:35:29;16.70;99.90
31133;DHT22;17779;50.942;4.026;2022-07-23T00:37:56;16.70;99.90
31133;DHT22;17779;50.942;4.026;2022-07-23T00:40:22;16.70;99.90
31133;DHT22;17779;50.942;4.026;2022-07-23T00:42:48;16.90;99.90
31133;DHT22;17779;50.942;4.026;2022-07-23T00:45:14;17.00;99.90
31133;DHT22;17779;50.942;4.026;2022-07-23T00:47:40;17.20;99.90
31133;DHT22;17779;50.942;4.026;2022-07-23T00:50:06;17.30;99.90
31133;DHT22;17779;50.942;4.026;2022-07-23T00:52:32;17.30;99.90
31133;DHT22;17779;50.942;4.026;2022-07-23T00:54:58;17.20;99.90
31133;DHT22;17779;50.942;4.026;2022-07-23T00:57:24;17.30;99.90
31133;DHT22;17779;50.942;4.026;2022-07-23T00:59:50;17.30;99.90
31133;DHT22;17779;50.942;4.026;2022-07-23T01:02:16;17.40;99.90
31133;DHT22;17779;50.942;4.026;2022-07-23T01:04:42;17.40;99.90
31133;DHT22;17779;50.942;4.026;2022-07-23T01:07:08;17.40;99.90
31133;DHT22;17779;50.942;4.026;2022-07-23T01:09:34;17.50;99.90
31133;DHT22;17779;50.942;4.026;2022-07-23T01:11:59;17.50;99.90
31133;DHT22;17779;50.942;4.026;2022-07-23T01:14:26;17.40;99.90
31133;DHT22;17779;50.942;4.026;2022-07-23T01:16:52;17.30;99.90
31133;DHT22;17779;50.942;4.026;2022-07-23T01:19:18;17.20;99.90
31133;DHT22;17779;50.942;4.026;2022-07-23T01:21:47;17.10;99.90
31133;DHT22;17779;50.942;4.026;2022-07-23T01:24:14;16.90;99.90
31133;DHT22;17779;50.942;4.026;2022-07-23T01:26:42;16.90;99.90
31133;DHT22;17779;50.942;4.026;2022-07-23T01:29:08;16.80;99.90
31133;DHT22;17779;50.942;4.026;2022-07-23T01:31:34;16.90;99.90
31133;DHT22;17779;50.942;4.026;2022-07-23T01:34:00;16.90;99.90
31133;DHT22;17779;50.942;4.026;2022-07-23T01:36:26;17.00;99.90
31133;DHT22;17779;50.942;4.026;2022-07-23T01:38:51;17.00;99.90
31133;DHT22;17779;50.942;4.026;2022-07-23T01:41:17;17.10;99.90
31133;DHT22;17779;50.942;4.026;2022-07-23T01:43:43;17.00;99.90
31133;DHT22;17779;50.942;4.026;2022-07-23T01:46:09;17.00;99.90
31133;DHT22;17779;50.942;4.026;2022-07-23T01:48:35;17.00;99.90
31133;DHT22;17779;50.942;4.026;2022-07-23T01:51:01;17.10;99.90
31133;DHT22;17779;50.942;4.026;2022-07-23T01:53:27;16.80;99.90
31133;DHT22;17779;50.942;4.026;2022-07-23T01:55:53;16.60;99.90
31133;DHT22;17779;50.942;4.026;2022-07-23T01:58:19;16.30;99.90
31133;DHT22;17779;50.942;4.026;2022-07-23T02:00:44;16.30;99.90
31133;DHT22;17779;50.942;4.026;2022-07-23T02:03:10;16.40;99.90
31133;DHT22;17779;50.942;4.026;2022-07-23T02:05:36;16.60;99.90
31133;DHT22;17779;50.942;4.026;2022-07-23T02:08:02;16.70;99.90
31133;DHT22;17779;50.942;4.026;2022-07-23T02:10:27;16.70;99.90
31133;DHT22;17779;50.942;4.026;2022-07-23T02:12:53;16.50;99.90
31133;DHT22;17779;50.942;4.026;2022-07-23T02:15:19;16.50;99.90
31133;DHT22;17779;50.942;4.026;2022-07-23T02:17:45;16.60;99.90
31133;DHT22;17779;50.942;4.026;2022-07-23T02:20:11;16.60;99.90
31133;DHT22;17779;50.942;4.026;2022-07-23T02:22:37;16.70;99.90
31133;DHT22;17779;50.942;4.026;2022-07-23T02:25:03;16.70;99.90
31133;DHT22;17779;50.942;4.026;2022-07-23T02:27:29;16.50;99.90
31133;DHT22;17779;50.942;4.026;2022-07-23T02:29:55;16.60;99.90
31133;DHT22;17779;50.942;4.026;2022-07-23T02:32:21;16.50;99.90
31133;DHT22;17779;50.942;4.026;2022-07-23T02:34:47;16.40;99.90
31133;DHT22;17779;50.942;4.026;2022-07-23T02:37:13;16.30;99.90
31133;DHT22;17779;50.942;4.026;2022-07-23T02:39:39;16.10;99.90
31133;DHT22;17779;50.942;4.026;2022-07-23T02:42:05;16.00;99.90
31133;DHT22;17779;50.942;4.026;2022-07-23T02:44:30;16.00;99.90
31133;DHT22;17779;50.942;4.026;2022-07-23T02:46:56;15.80;99.90
31133;DHT22;17779;50.942;4.026;2022-07-23T02:49:22;15.80;99.90
31133;DHT22;17779;50.942;4.026;2022-07-23T02:51:47;15.80;99.90
31133;DHT22;17779;50.942;4.026;2022-07-23T02:54:13;15.70;99.90
31133;DHT22;17779;50.942;4.026;2022-07-23T02:56:39;15.60;99.90
31133;DHT22;17779;50.942;4.026;2022-07-23T02:59:05;15.50;99.90
31133;DHT22;17779;50.942;4.026;2022-07-23T03:01:31;15.60;99.90
31133;DHT22;17779;50.942;4.026;2022-07-23T03:03:56;15.70;99.90
31133;DHT22;17779;50.942;4.026;2022-07-23T03:06:22;15.70;99.90
31133;DHT22;17779;50.942;4.026;2022-07-23T03:08:48;15.70;99.90
31133;DHT22;17779;50.942;4.026;2022-07-23T03:11:14;15.90;99.90
31133;DHT22;17779;50.942;4.026;2022-07-23T03:13:40;16.10;99.90
31133;DHT22;17779;50.942;4.026;2022-07-23T03:16:09;16.20;99.90
31133;DHT22;17779;50.942;4.026;2022-07-23T03:18:34;16.30;99.90
31133;DHT22;17779;50.942;4.026;2022-07-23T03:21:00;16.10;99.90
31133;DHT22;17779;50.942;4.026;2022-07-23T03:23:26;15.90;99.90
31133;DHT22;17779;50.942;4.026;2022-07-23T03:25:52;15.90;99.90
31133;DHT22;17779;50.942;4.026;2022-07-23T03:28:18;16.00;99.90
31133;DHT22;17779;50.942;4.026;2022-07-23T03:30:44;16.20;99.90
31133;DHT22;17779;50.942;4.026;2022-07-23T03:33:14;16.30;99.90
31133;DHT22;17779;50.942;4.026;2022-07-23T03:35:40;16.20;99.90
31133;DHT22;17779;50.942;4.026;2022-07-23T03:38:05;16.00;99.90
31133;DHT22;17779;50.942;4.026;2022-07-23T03:40:31;15.60;99.90
31133;DHT22;17779;50.942;4.026;2022-07-23T03:42:57;15.40;99.90
31133;DHT22;17779;50.942;4.026;2022-07-23T03:45:23;15.40;99.90
31133;DHT22;17779;50.942;4.026;2022-07-23T03:47:49;15.40;99.90
31133;DHT22;17779;50.942;4.026;2022-07-23T03:50:14;15.50;99.90
31133;DHT22;17779;50.942;4.026;2022-07-23T03:52:40;15.60;99.90
31133;DHT22;17779;50.942;4.026;2022-07-23T03:55:06;15.60;99.90
31133;DHT22;17779;50.942;4.026;2022-07-23T03:57:32;15.50;99.90
31133;DHT22;17779;50.942;4.026;2022-07-23T03:59:57;15.80;99.90
31133;DHT22;17779;50.942;4.026;2022-07-23T04:02:23;15.80;99.90
31133;DHT22;17779;50.942;4.026;2022-07-23T04:04:49;15.70;99.90
31133;DHT22;17779;50.942;4.026;2022-07-23T04:07:15;15.70;99.90
31133;DHT22;17779;50.942;4.026;2022-07-23T04:09:43;15.80;99.90
31133;DHT22;17779;50.942;4.026;2022-07-23T04:12:09;15.90;99.90
31133;DHT22;17779;50.942;4.026;2022-07-23T04:14:35;16.00;99.90
31133;DHT22;17779;50.942;4.026;2022-07-23T04:17:00;16.00;99.90
31133;DHT22;17779;50.942;4.026;2022-07-23T04:19:26;15.90;99.90
31133;DHT22;17779;50.942;4.026;2022-07-23T04:21:52;15.90;99.90
31133;DHT22;17779;50.942;4.026;2022-07-23T04:24:21;15.90;99.90
31133;DHT22;17779;50.942;4.026;2022-07-23T04:26:46;16.10;99.90
31133;DHT22;17779;50.942;4.026;2022-07-23T04:29:13;16.10;99.90
31133;DHT22;17779;50.942;4.026;2022-07-23T04:31:39;16.10;99.90
31133;DHT22;17779;50.942;4.026;2022-07-23T04:34:05;16.00;99.90
31133;DHT22;17779;50.942;4.026;2022-07-23T04:36:31;15.90;99.90
31133;DHT22;17779;50.942;4.026;2022-07-23T04:38:56;15.90;99.90
31133;DHT22;17779;50.942;4.026;2022-07-23T04:41:22;15.90;99.90
31133;DHT22;17779;50.942;4.026;2022-07-23T04:43:48;16.00;99.90
31133;DHT22;17779;50.942;4.026;2022-07-23T04:46:14;16.10;99.90
31133;DHT22;17779;50.942;4.026;2022-07-23T04:48:40;16.20;99.90
31133;DHT22;17779;50.942;4.026;2022-07-23T04:51:07;16.20;99.90
31133;DHT22;17779;50.942;4.026;2022-07-23T04:53:33;16.10;99.90
31133;DHT22;17779;50.942;4.026;2022-07-23T04:55:59;16.10;99.90
31133;DHT22;17779;50.942;4.026;2022-07-23T04:58:24;16.40;99.90
31133;DHT22;17779;50.942;4.026;2022-07-23T05:00:50;16.80;99.90
31133;DHT22;17779;50.942;4.026;2022-07-23T05:03:16;17.10;99.90
31133;DHT22;17779;50.942;4.026;2022-07-23T05:05:42;17.20;99.90
31133;DHT22;17779;50.942;4.026;2022-07-23T05:08:08;17.30;99.90
31133;DHT22;17779;50.942;4.026;2022-07-23T05:10:34;17.20;99.90
31133;DHT22;17779;50.942;4.026;2022-07-23T05:12:59;17.20;99.90
31133;DHT22;17779;50.942;4.026;2022-07-23T05:15:25;17.10;99.90
31133;DHT22;17779;50.942;4.026;2022-07-23T05:17:51;16.80;99.90
31133;DHT22;17779;50.942;4.026;2022-07-23T05:20:17;16.90;99.90
31133;DHT22;17779;50.942;4.026;2022-07-23T05:22:43;17.00;99.90
31133;DHT22;17779;50.942;4.026;2022-07-23T05:25:08;17.00;99.90
31133;DHT22;17779;50.942;4.026;2022-07-23T05:27:34;17.10;99.90
31133;DHT22;17779;50.942;4.026;2022-07-23T05:30:00;17.10;99.90
31133;DHT22;17779;50.942;4.026;2022-07-23T05:32:26;17.20;99.90
31133;DHT22;17779;50.942;4.026;2022-07-23T05:34:52;17.20;99.90
31133;DHT22;17779;50.942;4.026;2022-07-23T05:37:17;17.20;99.90
31133;DHT22;17779;50.942;4.026;2022-07-23T05:39:43;17.20;99.90
31133;DHT22;17779;50.942;4.026;2022-07-23T05:42:09;17.20;99.90
31133;DHT22;17779;50.942;4.026;2022-07-23T05:44:35;17.00;99.90
31133;DHT22;17779;50.942;4.026;2022-07-23T05:47:01;16.80;99.90
31133;DHT22;17779;50.942;4.026;2022-07-23T05:49:26;16.80;99.90
31133;DHT22;17779;50.942;4.026;2022-07-23T05:51:52;17.00;99.90
31133;DHT22;17779;50.942;4.026;2022-07-23T05:54:18;17.20;99.90
31133;DHT22;17779;50.942;4.026;2022-07-23T05:56:44;17.40;99.90
31133;DHT22;17779;50.942;4.026;2022-07-23T05:59:09;17.40;99.90
31133;DHT22;17779;50.942;4.026;2022-07-23T06:01:37;17.50;99.90
31133;DHT22;17779;50.942;4.026;2022-07-23T06:04:03;17.70;99.90
31133;DHT22;17779;50.942;4.026;2022-07-23T06:06:29;17.70;99.90
31133;DHT22;17779;50.942;4.026;2022-07-23T06:08:54;17.90;99.90
31133;DHT22;17779;50.942;4.026;2022-07-23T06:13:49;18.10;99.90
31133;DHT22;17779;50.942;4.026;2022-07-23T06:16:14;18.00;99.90
31133;DHT22;17779;50.942;4.026;2022-07-23T06:18:40;17.90;99.90
31133;DHT22;17779;50.942;4.026;2022-07-23T06:21:06;18.10;99.90
31133;DHT22;17779;50.942;4.026;2022-07-23T06:23:32;18.20;99.90
31133;DHT22;17779;50.942;4.026;2022-07-23T06:25:57;18.50;99.90
31133;DHT22;17779;50.942;4.026;2022-07-23T06:28:23;18.60;99.90
31133;DHT22;17779;50.942;4.026;2022-07-23T06:33:18;19.40;99.90
31133;DHT22;17779;50.942;4.026;2022-07-23T06:35:43;19.10;99.90
31133;DHT22;17779;50.942;4.026;2022-07-23T06:38:09;19.40;99.90
31133;DHT22;17779;50.942;4.026;2022-07-23T06:40:35;19.40;99.90
31133;DHT22;17779;50.942;4.026;2022-07-23T06:43:01;19.20;99.90
31133;DHT22;17779;50.942;4.026;2022-07-23T06:45:26;18.90;99.90
31133;DHT22;17779;50.942;4.026;2022-07-23T06:47:52;19.00;99.90
31133;DHT22;17779;50.942;4.026;2022-07-23T06:50:18;19.00;99.90
31133;DHT22;17779;50.942;4.026;2022-07-23T06:52:43;19.00;99.90
31133;DHT22;17779;50.942;4.026;2022-07-23T06:55:10;19.00;99.90
31133;DHT22;17779;50.942;4.026;2022-07-23T06:57:38;19.50;99.90
31133;DHT22;17779;50.942;4.026;2022-07-23T07:00:04;19.90;99.90
31133;DHT22;17779;50.942;4.026;2022-07-23T07:02:30;20.20;99.90
31133;DHT22;17779;50.942;4.026;2022-07-23T07:04:56;20.80;99.90
31133;DHT22;17779;50.942;4.026;2022-07-23T07:07:22;20.90;99.90
31133;DHT22;17779;50.942;4.026;2022-07-23T07:09:48;21.50;99.90
31133;DHT22;17779;50.942;4.026;2022-07-23T07:12:13;22.80;99.90
31133;DHT22;17779;50.942;4.026;2022-07-23T07:14:39;23.40;99.90
31133;DHT22;17779;50.942;4.026;2022-07-23T07:17:05;23.50;99.90
31133;DHT22;17779;50.942;4.026;2022-07-23T07:19:31;24.70;99.90
31133;DHT22;17779;50.942;4.026;2022-07-23T07:21:56;26.90;99.90
31133;DHT22;17779;50.942;4.026;2022-07-23T07:24:22;29.10;99.90
31133;DHT22;17779;50.942;4.026;2022-07-23T07:26:48;28.60;99.90
31133;DHT22;17779;50.942;4.026;2022-07-23T07:29:14;28.70;99.90
31133;DHT22;17779;50.942;4.026;2022-07-23T07:31:39;29.70;99.90
31133;DHT22;17779;50.942;4.026;2022-07-23T07:34:05;30.40;99.90
31133;DHT22;17779;50.942;4.026;2022-07-23T07:36:31;31.60;99.90
31133;DHT22;17779;50.942;4.026;2022-07-23T07:38:58;32.40;99.90
31133;DHT22;17779;50.942;4.026;2022-07-23T07:41:23;32.40;99.90
31133;DHT22;17779;50.942;4.026;2022-07-23T07:43:51;32.90;99.90
31133;DHT22;17779;50.942;4.026;2022-07-23T07:46:17;32.30;99.90
31133;DHT22;17779;50.942;4.026;2022-07-23T07:48:43;33.20;99.90
31133;DHT22;17779;50.942;4.026;2022-07-23T07:51:09;34.00;99.40
31133;DHT22;17779;50.942;4.026;2022-07-23T07:53:34;33.40;99.00
31133;DHT22;17779;50.942;4.026;2022-07-23T07:56:01;33.20;98.30
31133;DHT22;17779;50.942;4.026;2022-07-23T07:58:27;33.40;98.20
31133;DHT22;17779;50.942;4.026;2022-07-23T08:00:53;33.00;98.70
31133;DHT22;17779;50.942;4.026;2022-07-23T08:03:18;34.30;96.90
31133;DHT22;17779;50.942;4.026;2022-07-23T08:05:44;35.40;95.40
31133;DHT22;17779;50.942;4.026;2022-07-23T08:08:10;36.00;93.70
31133;DHT22;17779;50.942;4.026;2022-07-23T08:10:40;36.80;92.60
31133;DHT22;17779;50.942;4.026;2022-07-23T08:13:06;36.50;91.00
31133;DHT22;17779;50.942;4.026;2022-07-23T08:15:32;33.90;93.10
31133;DHT22;17779;50.942;4.026;2022-07-23T08:17:58;34.10;94.00
31133;DHT22;17779;50.942;4.026;2022-07-23T08:20:29;34.70;92.80
31133;DHT22;17779;50.942;4.026;2022-07-23T08:22:56;35.40;91.20
31133;DHT22;17779;50.942;4.026;2022-07-23T08:25:25;36.00;90.20
31133;DHT22;17779;50.942;4.026;2022-07-23T08:27:54;34.20;91.00
31133;DHT22;17779;50.942;4.026;2022-07-23T08:30:21;34.60;91.70
31133;DHT22;17779;50.942;4.026;2022-07-23T08:32:56;33.10;92.20
31133;DHT22;17779;50.942;4.026;2022-07-23T08:35:27;33.20;92.10
31133;DHT22;17779;50.942;4.026;2022-07-23T08:37:53;33.70;91.70
31133;DHT22;17779;50.942;4.026;2022-07-23T08:40:19;33.10;92.60
31133;DHT22;17779;50.942;4.026;2022-07-23T08:42:46;33.30;92.40
31133;DHT22;17779;50.942;4.026;2022-07-23T08:45:12;33.40;92.00
31133;DHT22;17779;50.942;4.026;2022-07-23T08:47:40;33.20;90.90
31133;DHT22;17779;50.942;4.026;2022-07-23T08:50:07;33.30;91.60
31133;DHT22;17779;50.942;4.026;2022-07-23T08:52:33;35.60;88.60
31133;DHT22;17779;50.942;4.026;2022-07-23T08:54:59;35.30;88.80
31133;DHT22;17779;50.942;4.026;2022-07-23T08:57:25;34.40;84.60
31133;DHT22;17779;50.942;4.026;2022-07-23T08:59:51;34.80;84.60
31133;DHT22;17779;50.942;4.026;2022-07-23T09:02:16;34.90;87.40
31133;DHT22;17779;50.942;4.026;2022-07-23T09:04:44;34.50;86.10
31133;DHT22;17779;50.942;4.026;2022-07-23T09:07:10;35.20;83.90
31133;DHT22;17779;50.942;4.026;2022-07-23T09:09:36;34.00;83.00
31133;DHT22;17779;50.942;4.026;2022-07-23T09:12:05;33.50;84.40
31133;DHT22;17779;50.942;4.026;2022-07-23T09:14:38;33.00;90.10
31133;DHT22;17779;50.942;4.026;2022-07-23T09:17:08;34.90;85.30
31133;DHT22;17779;50.942;4.026;2022-07-23T09:19:34;33.90;84.70
31133;DHT22;17779;50.942;4.026;2022-07-23T09:22:15;32.00;87.80
31133;DHT22;17779;50.942;4.026;2022-07-23T09:25:01;33.30;87.30
31133;DHT22;17779;50.942;4.026;2022-07-23T09:27:45;33.50;85.90
31133;DHT22;17779;50.942;4.026;2022-07-23T09:30:11;34.60;83.30
31133;DHT22;17779;50.942;4.026;2022-07-23T09:32:38;33.30;84.20
31133;DHT22;17779;50.942;4.026;2022-07-23T09:35:04;32.50;86.30
31133;DHT22;17779;50.942;4.026;2022-07-23T09:37:30;33.30;86.10
31133;DHT22;17779;50.942;4.026;2022-07-23T09:40:03;33.20;84.70
31133;DHT22;17779;50.942;4.026;2022-07-23T09:42:29;32.70;84.20
31133;DHT22;17779;50.942;4.026;2022-07-23T09:44:56;34.60;84.50
31133;DHT22;17779;50.942;4.026;2022-07-23T09:47:23;34.80;81.30
31133;DHT22;17779;50.942;4.026;2022-07-23T09:50:00;36.30;77.50
31133;DHT22;17779;50.942;4.026;2022-07-23T09:52:29;35.30;78.60
31133;DHT22;17779;50.942;4.026;2022-07-23T09:54:58;34.20;80.40
31133;DHT22;17779;50.942;4.026;2022-07-23T09:57:25;32.70;82.20
31133;DHT22;17779;50.942;4.026;2022-07-23T09:59:52;34.30;80.70
31133;DHT22;17779;50.942;4.026;2022-07-23T10:02:18;36.30;77.10
31133;DHT22;17779;50.942;4.026;2022-07-23T10:04:43;36.50;76.00
31133;DHT22;17779;50.942;4.026;2022-07-23T10:07:09;36.50;75.20
31133;DHT22;17779;50.942;4.026;2022-07-23T10:09:36;36.00;76.70
31133;DHT22;17779;50.942;4.026;2022-07-23T10:12:04;35.40;76.20
31133;DHT22;17779;50.942;4.026;2022-07-23T10:14:48;36.40;74.10
31133;DHT22;17779;50.942;4.026;2022-07-23T10:17:14;37.80;71.80
31133;DHT22;17779;50.942;4.026;2022-07-23T10:19:39;38.50;70.40
31133;DHT22;17779;50.942;4.026;2022-07-23T10:22:09;38.50;68.70
31133;DHT22;17779;50.942;4.026;2022-07-23T10:24:53;38.80;68.40
31133;DHT22;17779;50.942;4.026;2022-07-23T10:32:58;38.80;67.20
31133;DHT22;17779;50.942;4.026;2022-07-23T10:37:54;38.30;67.00
31133;DHT22;17779;50.942;4.026;2022-07-23T10:40:22;37.90;66.60
31133;DHT22;17779;50.942;4.026;2022-07-23T10:42:50;35.90;69.00
31133;DHT22;17779;50.942;4.026;2022-07-23T10:45:33;34.80;70.70
31133;DHT22;17779;50.942;4.026;2022-07-23T10:48:18;34.50;71.50
31133;DHT22;17779;50.942;4.026;2022-07-23T10:53:36;36.30;69.30
31133;DHT22;17779;50.942;4.026;2022-07-23T10:56:15;36.90;67.60
31133;DHT22;17779;50.942;4.026;2022-07-23T10:58:50;36.80;67.70
31133;DHT22;17779;50.942;4.026;2022-07-23T11:01:34;37.10;67.60
31133;DHT22;17779;50.942;4.026;2022-07-23T11:04:00;36.30;68.30
31133;DHT22;17779;50.942;4.026;2022-07-23T11:09:23;37.60;65.90
31133;DHT22;17779;50.942;4.026;2022-07-23T11:11:49;36.30;67.40
31133;DHT22;17779;50.942;4.026;2022-07-23T11:14:15;36.50;67.00
31133;DHT22;17779;50.942;4.026;2022-07-23T11:16:46;37.50;65.60
31133;DHT22;17779;50.942;4.026;2022-07-23T11:19:13;37.50;65.10
31133;DHT22;17779;50.942;4.026;2022-07-23T11:32:04;40.10;62.10
31133;DHT22;17779;50.942;4.026;2022-07-23T11:34:34;36.40;64.10
31133;DHT22;17779;50.942;4.026;2022-07-23T11:37:02;37.60;64.90
31133;DHT22;17779;50.942;4.026;2022-07-23T11:39:28;36.70;65.00
31133;DHT22;17779;50.942;4.026;2022-07-23T11:41:54;36.50;65.40
31133;DHT22;17779;50.942;4.026;2022-07-23T11:44:30;37.00;64.50
31133;DHT22;17779;50.942;4.026;2022-07-23T11:46:57;38.00;63.30
31133;DHT22;17779;50.942;4.026;2022-07-23T11:49:23;38.20;61.90
31133;DHT22;17779;50.942;4.026;2022-07-23T11:54:34;35.80;64.50
31133;DHT22;17779;50.942;4.026;2022-07-23T11:57:00;35.00;66.30
31133;DHT22;17779;50.942;4.026;2022-07-23T11:59:26;36.90;66.20
31133;DHT22;17779;50.942;4.026;2022-07-23T12:02:00;37.70;64.40
31133;DHT22;17779;50.942;4.026;2022-07-23T12:04:40;36.70;64.80
31133;DHT22;17779;50.942;4.026;2022-07-23T12:09:50;38.70;61.00
31133;DHT22;17779;50.942;4.026;2022-07-23T12:12:16;38.40;61.70
31133;DHT22;17779;50.942;4.026;2022-07-23T12:14:56;38.40;62.20
31133;DHT22;17779;50.942;4.026;2022-07-23T12:17:32;38.10;61.40
31133;DHT22;17779;50.942;4.026;2022-07-23T12:19:58;36.80;63.50
31133;DHT22;17779;50.942;4.026;2022-07-23T12:22:25;36.60;64.10
31133;DHT22;17779;50.942;4.026;2022-07-23T12:25:03;37.00;64.20
31133;DHT22;17779;50.942;4.026;2022-07-23T12:27:29;36.60;63.20
31133;DHT22;17779;50.942;4.026;2022-07-23T12:29:55;36.10;64.90
31133;DHT22;17779;50.942;4.026;2022-07-23T12:32:25;34.70;66.20
31133;DHT22;17779;50.942;4.026;2022-07-23T12:35:12;36.30;64.90
31133;DHT22;17779;50.942;4.026;2022-07-23T12:37:39;37.60;62.50
31133;DHT22;17779;50.942;4.026;2022-07-23T12:42:53;37.40;61.40
31133;DHT22;17779;50.942;4.026;2022-07-23T12:45:19;37.30;62.60
31133;DHT22;17779;50.942;4.026;2022-07-23T12:53:06;37.40;62.40
31133;DHT22;17779;50.942;4.026;2022-07-23T12:55:33;37.80;62.20
31133;DHT22;17779;50.942;4.026;2022-07-23T12:58:02;37.30;61.10
31133;DHT22;17779;50.942;4.026;2022-07-23T13:00:28;36.10;63.40
31133;DHT22;17779;50.942;4.026;2022-07-23T13:02:54;34.40;65.90
31133;DHT22;17779;50.942;4.026;2022-07-23T13:05:19;33.10;68.00
31133;DHT22;17779;50.942;4.026;2022-07-23T13:07:45;31.80;70.90
31133;DHT22;17779;50.942;4.026;2022-07-23T13:10:11;31.60;72.60
31133;DHT22;17779;50.942;4.026;2022-07-23T13:12:37;31.70;72.60
31133;DHT22;17779;50.942;4.026;2022-07-23T13:15:03;31.50;73.10
31133;DHT22;17779;50.942;4.026;2022-07-23T13:17:29;31.20;73.80
31133;DHT22;17779;50.942;4.026;2022-07-23T13:19:55;30.50;76.90
31133;DHT22;17779;50.942;4.026;2022-07-23T13:22:21;30.80;77.50
31133;DHT22;17779;50.942;4.026;2022-07-23T13:24:46;30.60;78.30
31133;DHT22;17779;50.942;4.026;2022-07-23T13:27:12;30.40;78.30
31133;DHT22;17779;50.942;4.026;2022-07-23T13:29:38;30.60;78.00
31133;DHT22;17779;50.942;4.026;2022-07-23T13:32:04;30.40;78.50
31133;DHT22;17779;50.942;4.026;2022-07-23T13:34:29;30.10;79.80
31133;DHT22;17779;50.942;4.026;2022-07-23T13:36:55;30.30;80.60
31133;DHT22;17779;50.942;4.026;2022-07-23T13:39:21;30.00;82.20
31133;DHT22;17779;50.942;4.026;2022-07-23T13:41:47;30.10;81.70
31133;DHT22;17779;50.942;4.026;2022-07-23T13:44:12;30.40;80.30
31133;DHT22;17779;50.942;4.026;2022-07-23T13:46:38;30.00;80.80
31133;DHT22;17779;50.942;4.026;2022-07-23T13:49:04;29.20;83.10
31133;DHT22;17779;50.942;4.026;2022-07-23T13:51:29;29.00;83.80
31133;DHT22;17779;50.942;4.026;2022-07-23T13:53:55;28.80;85.00
31133;DHT22;17779;50.942;4.026;2022-07-23T13:56:24;28.80;85.00
31133;DHT22;17779;50.942;4.026;2022-07-23T13:58:50;28.60;87.20
31133;DHT22;17779;50.942;4.026;2022-07-23T14:01:15;28.70;87.30
31133;DHT22;17779;50.942;4.026;2022-07-23T14:03:41;28.30;88.10
31133;DHT22;17779;50.942;4.026;2022-07-23T14:06:07;28.40;88.40
31133;DHT22;17779;50.942;4.026;2022-07-23T14:08:32;28.40;88.40
31133;DHT22;17779;50.942;4.026;2022-07-23T14:10:58;28.20;89.70
31133;DHT22;17779;50.942;4.026;2022-07-23T14:13:24;28.30;89.50
31133;DHT22;17779;50.942;4.026;2022-07-23T14:15:50;28.00;89.90
31133;DHT22;17779;50.942;4.026;2022-07-23T14:18:16;28.10;90.10
31133;DHT22;17779;50.942;4.026;2022-07-23T14:20:41;28.50;89.60
31133;DHT22;17779;50.942;4.026;2022-07-23T14:23:07;28.70;89.40
31133;DHT22;17779;50.942;4.026;2022-07-23T14:25:33;28.90;88.70
31133;DHT22;17779;50.942;4.026;2022-07-23T14:27:59;28.80;87.70
31133;DHT22;17779;50.942;4.026;2022-07-23T14:30:24;29.10;87.40
31133;DHT22;17779;50.942;4.026;2022-07-23T14:32:50;29.20;88.20
31133;DHT22;17779;50.942;4.026;2022-07-23T14:35:16;29.30;87.50
31133;DHT22;17779;50.942;4.026;2022-07-23T14:37:42;29.80;87.60
31133;DHT22;17779;50.942;4.026;2022-07-23T14:40:08;29.90;85.90
31133;DHT22;17779;50.942;4.026;2022-07-23T14:42:33;29.70;85.60
31133;DHT22;17779;50.942;4.026;2022-07-23T14:44:59;29.80;86.30
31133;DHT22;17779;50.942;4.026;2022-07-23T14:47:25;30.00;85.30
31133;DHT22;17779;50.942;4.026;2022-07-23T14:49:51;30.10;86.30
31133;DHT22;17779;50.942;4.026;2022-07-23T14:52:16;30.30;85.10
31133;DHT22;17779;50.942;4.026;2022-07-23T14:54:42;30.00;86.00
31133;DHT22;17779;50.942;4.026;2022-07-23T14:57:08;29.80;86.70
31133;DHT22;17779;50.942;4.026;2022-07-23T14:59:34;30.20;86.40
31133;DHT22;17779;50.942;4.026;2022-07-23T15:02:00;29.80;86.80
31133;DHT22;17779;50.942;4.026;2022-07-23T15:04:26;29.60;87.60
31133;DHT22;17779;50.942;4.026;2022-07-23T15:06:52;29.40;86.60
31133;DHT22;17779;50.942;4.026;2022-07-23T15:09:17;29.00;87.90
31133;DHT22;17779;50.942;4.026;2022-07-23T15:11:43;28.90;89.00
31133;DHT22;17779;50.942;4.026;2022-07-23T15:14:09;28.70;89.80
31133;DHT22;17779;50.942;4.026;2022-07-23T15:16:35;28.30;90.60
31133;DHT22;17779;50.942;4.026;2022-07-23T15:19:01;28.40;90.60
31133;DHT22;17779;50.942;4.026;2022-07-23T15:21:27;28.30;91.00
31133;DHT22;17779;50.942;4.026;2022-07-23T15:23:54;28.50;91.00
31133;DHT22;17779;50.942;4.026;2022-07-23T15:26:20;28.40;90.70
31133;DHT22;17779;50.942;4.026;2022-07-23T15:28:48;28.50;90.60
31133;DHT22;17779;50.942;4.026;2022-07-23T15:31:14;28.80;90.60
31133;DHT22;17779;50.942;4.026;2022-07-23T15:33:39;29.10;90.40
31133;DHT22;17779;50.942;4.026;2022-07-23T15:36:05;29.20;90.20
31133;DHT22;17779;50.942;4.026;2022-07-23T15:38:31;29.30;90.10
31133;DHT22;17779;50.942;4.026;2022-07-23T15:40:57;29.10;90.70
31133;DHT22;17779;50.942;4.026;2022-07-23T15:43:23;28.90;90.30
31133;DHT22;17779;50.942;4.026;2022-07-23T15:45:50;28.70;91.00
31133;DHT22;17779;50.942;4.026;2022-07-23T15:48:17;28.70;90.10
31133;DHT22;17779;50.942;4.026;2022-07-23T15:50:43;28.60;90.40
31133;DHT22;17779;50.942;4.026;2022-07-23T15:53:09;28.90;90.50
31133;DHT22;17779;50.942;4.026;2022-07-23T15:55:34;28.50;90.50
31133;DHT22;17779;50.942;4.026;2022-07-23T15:58:00;28.60;90.70
31133;DHT22;17779;50.942;4.026;2022-07-23T16:00:26;28.20;91.10
31133;DHT22;17779;50.942;4.026;2022-07-23T16:02:52;28.40;91.50
31133;DHT22;17779;50.942;4.026;2022-07-23T16:05:17;28.60;90.30
31133;DHT22;17779;50.942;4.026;2022-07-23T16:07:59;28.70;90.60
31133;DHT22;17779;50.942;4.026;2022-07-23T16:10:25;28.70;90.30